sensor_id;sensor_type;location;lat;lon;timestamp;temperature;humidity
19031;DHT22;9648;51.130;13.978;2023-05-14T00:01:09;10.10;99.90
19031;DHT22;9648;51.130;13.978;2023-05-14T00:03:36;10.00;99.90
19031;DHT22;9648;51.130;13.978;2023-05-14T00:06:06;10.00;99.90
19031;DHT22;9648;51.130;13.978;2023-05-14T00:08:33;9.90;99.90
19031;DHT22;9648;51.130;13.978;2023-05-14T00:11:00;9.80;99.90
19031;DHT22;9648;51.130;13.978;2023-05-14T00:13:27;9.70;99.90
19031;DHT22;9648;51.130;13.978;2023-05-14T00:15:53;9.70;99.90
19031;DHT22;9648;51.130;13.978;2023-05-14T00:18:20;9.70;99.90
19031;DHT22;9648;51.130;13.978;2023-05-14T00:20:47;9.70;99.90
19031;DHT22;9648;51.130;13.978;2023-05-14T00:23:20;9.70;99.90
19031;DHT22;9648;51.130;13.978;2023-05-14T00:25:47;9.70;99.90
19031;DHT22;9648;51.130;13.978;2023-05-14T00:28:14;9.70;99.90
19031;DHT22;9648;51.130;13.978;2023-05-14T00:30:41;9.70;99.90
19031;DHT22;9648;51.130;13.978;2023-05-14T00:33:08;9.70;99.90
19031;DHT22;9648;51.130;13.978;2023-05-14T00:35:35;9.80;99.90
19031;DHT22;9648;51.130;13.978;2023-05-14T00:38:02;9.80;99.90
19031;DHT22;9648;51.130;13.978;2023-05-14T00:40:31;9.80;99.90
19031;DHT22;9648;51.130;13.978;2023-05-14T00:42:58;9.90;99.90
19031;DHT22;9648;51.130;13.978;2023-05-14T00:45:25;9.90;99.90
19031;DHT22;9648;51.130;13.978;2023-05-14T00:47:53;9.90;99.90
19031;DHT22;9648;51.130;13.978;2023-05-14T00:50:21;10.00;99.90
19031;DHT22;9648;51.130;13.978;2023-05-14T00:52:48;10.00;99.90
19031;DHT22;9648;51.130;13.978;2023-05-14T00:55:15;10.10;99.90
19031;DHT22;9648;51.130;13.978;2023-05-14T00:57:43;10.10;99.90
19031;DHT22;9648;51.130;13.978;2023-05-14T01:00:11;10.20;99.90
19031;DHT22;9648;51.130;13.978;2023-05-14T01:02:38;10.30;99.90
19031;DHT22;9648;51.130;13.978;2023-05-14T01:05:06;10.30;99.90
19031;DHT22;9648;51.130;13.978;2023-05-14T01:07:38;10.40;99.90
19031;DHT22;9648;51.130;13.978;2023-05-14T01:10:12;10.50;99.90
19031;DHT22;9648;51.130;13.978;2023-05-14T01:12:50;10.60;99.90
19031;DHT22;9648;51.130;13.978;2023-05-14T01:15:21;10.60;99.90
19031;DHT22;9648;51.130;13.978;2023-05-14T01:17:52;10.70;99.90
19031;DHT22;9648;51.130;13.978;2023-05-14T01:20:20;10.60;99.90
19031;DHT22;9648;51.130;13.978;2023-05-14T01:22:48;10.70;99.90
19031;DHT22;9648;51.130;13.978;2023-05-14T01:25:15;10.70;99.90
19031;DHT22;9648;51.130;13.978;2023-05-14T01:27:45;10.70;99.90
19031;DHT22;9648;51.130;13.978;2023-05-14T01:30:20;10.70;99.90
19031;DHT22;9648;51.130;13.978;2023-05-14T01:32:50;10.70;99.90
19031;DHT22;9648;51.130;13.978;2023-05-14T01:35:22;10.70;99.90
19031;DHT22;9648;51.130;13.978;2023-05-14T01:37:52;10.70;99.90
19031;DHT22;9648;51.130;13.978;2023-05-14T01:40:20;10.60;99.90
19031;DHT22;9648;51.130;13.978;2023-05-14T01:42:48;10.60;99.90
19031;DHT22;9648;51.130;13.978;2023-05-14T01:45:16;10.50;99.90
19031;DHT22;9648;51.130;13.978;2023-05-14T01:47:43;10.50;99.90
19031;DHT22;9648;51.130;13.978;2023-05-14T01:50:10;10.50;99.90
19031;DHT22;9648;51.130;13.978;2023-05-14T01:52:36;10.50;99.90
19031;DHT22;9648;51.130;13.978;2023-05-14T01:55:06;10.50;99.90
19031;DHT22;9648;51.130;13.978;2023-05-14T01:57:33;10.50;99.90
19031;DHT22;9648;51.130;13.978;2023-05-14T02:00:03;10.40;99.90
19031;DHT22;9648;51.130;13.978;2023-05-14T02:02:30;10.40;99.90
19031;DHT22;9648;51.130;13.978;2023-05-14T02:04:57;10.40;99.90
19031;DHT22;9648;51.130;13.978;2023-05-14T02:07:24;10.40;99.90
19031;DHT22;9648;51.130;13.978;2023-05-14T02:09:50;10.40;99.90
19031;DHT22;9648;51.130;13.978;2023-05-14T02:12:19;10.40;99.90
19031;DHT22;9648;51.130;13.978;2023-05-14T02:14:45;10.40;99.90
19031;DHT22;9648;51.130;13.978;2023-05-14T02:17:12;10.30;99.90
19031;DHT22;9648;51.130;13.978;2023-05-14T02:19:41;10.40;99.90
19031;DHT22;9648;51.130;13.978;2023-05-14T02:22:07;10.40;99.90
19031;DHT22;9648;51.130;13.978;2023-05-14T02:24:34;10.30;99.90
19031;DHT22;9648;51.130;13.978;2023-05-14T02:27:01;10.40;99.90
19031;DHT22;9648;51.130;13.978;2023-05-14T02:29:29;10.30;99.90
19031;DHT22;9648;51.130;13.978;2023-05-14T02:31:56;10.30;99.90
19031;DHT22;9648;51.130;13.978;2023-05-14T02:34:23;10.30;99.90
19031;DHT22;9648;51.130;13.978;2023-05-14T02:36:50;10.20;99.90
19031;DHT22;9648;51.130;13.978;2023-05-14T02:39:16;10.20;99.90
19031;DHT22;9648;51.130;13.978;2023-05-14T02:41:43;10.10;99.90
19031;DHT22;9648;51.130;13.978;2023-05-14T02:44:10;10.10;99.90
19031;DHT22;9648;51.130;13.978;2023-05-14T02:46:38;10.00;99.90
19031;DHT22;9648;51.130;13.978;2023-05-14T02:49:08;10.00;99.90
19031;DHT22;9648;51.130;13.978;2023-05-14T02:51:35;10.00;99.90
19031;DHT22;9648;51.130;13.978;2023-05-14T02:54:04;9.90;99.90
19031;DHT22;9648;51.130;13.978;2023-05-14T02:56:33;9.80;99.90
19031;DHT22;9648;51.130;13.978;2023-05-14T02:59:00;9.70;99.90
19031;DHT22;9648;51.130;13.978;2023-05-14T03:01:26;9.60;99.90
19031;DHT22;9648;51.130;13.978;2023-05-14T03:03:55;9.50;99.90
19031;DHT22;9648;51.130;13.978;2023-05-14T03:06:22;9.30;99.90
19031;DHT22;9648;51.130;13.978;2023-05-14T03:08:49;9.20;99.90
19031;DHT22;9648;51.130;13.978;2023-05-14T03:11:18;9.10;99.90
19031;DHT22;9648;51.130;13.978;2023-05-14T03:13:45;9.10;99.90
19031;DHT22;9648;51.130;13.978;2023-05-14T03:16:12;9.00;99.90
19031;DHT22;9648;51.130;13.978;2023-05-14T03:18:38;9.00;99.90
19031;DHT22;9648;51.130;13.978;2023-05-14T03:21:09;8.90;99.90
19031;DHT22;9648;51.130;13.978;2023-05-14T03:23:36;8.80;99.90
19031;DHT22;9648;51.130;13.978;2023-05-14T03:26:06;8.80;99.90
19031;DHT22;9648;51.130;13.978;2023-05-14T03:28:33;8.70;99.90
19031;DHT22;9648;51.130;13.978;2023-05-14T03:30:59;8.60;99.90
19031;DHT22;9648;51.130;13.978;2023-05-14T03:33:26;8.60;99.90
19031;DHT22;9648;51.130;13.978;2023-05-14T03:35:53;8.50;99.90
19031;DHT22;9648;51.130;13.978;2023-05-14T03:38:21;8.50;99.90
19031;DHT22;9648;51.130;13.978;2023-05-14T03:40:48;8.50;99.90
19031;DHT22;9648;51.130;13.978;2023-05-14T03:43:15;8.40;99.90
19031;DHT22;9648;51.130;13.978;2023-05-14T03:45:42;8.40;99.90
19031;DHT22;9648;51.130;13.978;2023-05-14T03:48:09;8.30;99.90
19031;DHT22;9648;51.130;13.978;2023-05-14T03:50:36;8.30;99.90
19031;DHT22;9648;51.130;13.978;2023-05-14T03:53:03;8.30;99.90
19031;DHT22;9648;51.130;13.978;2023-05-14T03:55:31;8.30;99.90
19031;DHT22;9648;51.130;13.978;2023-05-14T03:57:57;8.30;99.90
19031;DHT22;9648;51.130;13.978;2023-05-14T04:00:24;8.20;99.90
19031;DHT22;9648;51.130;13.978;2023-05-14T04:02:51;8.20;99.90
19031;DHT22;9648;51.130;13.978;2023-05-14T04:05:18;8.30;99.90
19031;DHT22;9648;51.130;13.978;2023-05-14T04:07:45;8.20;99.90
19031;DHT22;9648;51.130;13.978;2023-05-14T04:10:12;8.20;99.90
19031;DHT22;9648;51.130;13.978;2023-05-14T04:12:40;8.30;99.90
19031;DHT22;9648;51.130;13.978;2023-05-14T04:15:10;8.30;99.90
19031;DHT22;9648;51.130;13.978;2023-05-14T04:17:37;8.30;99.90
19031;DHT22;9648;51.130;13.978;2023-05-14T04:20:05;8.30;99.90
19031;DHT22;9648;51.130;13.978;2023-05-14T04:22:32;8.30;99.90
19031;DHT22;9648;51.130;13.978;2023-05-14T04:24:58;8.30;99.90
19031;DHT22;9648;51.130;13.978;2023-05-14T04:27:26;8.30;99.90
19031;DHT22;9648;51.130;13.978;2023-05-14T04:29:55;8.40;99.90
19031;DHT22;9648;51.130;13.978;2023-05-14T04:32:21;8.40;99.90
19031;DHT22;9648;51.130;13.978;2023-05-14T04:34:49;8.40;99.90
19031;DHT22;9648;51.130;13.978;2023-05-14T04:37:15;8.40;99.90
19031;DHT22;9648;51.130;13.978;2023-05-14T04:39:42;8.50;99.90
19031;DHT22;9648;51.130;13.978;2023-05-14T04:42:09;8.60;99.90
19031;DHT22;9648;51.130;13.978;2023-05-14T04:44:36;8.60;99.90
19031;DHT22;9648;51.130;13.978;2023-05-14T04:47:04;8.70;99.90
19031;DHT22;9648;51.130;13.978;2023-05-14T04:49:35;8.80;99.90
19031;DHT22;9648;51.130;13.978;2023-05-14T04:52:01;8.90;99.90
19031;DHT22;9648;51.130;13.978;2023-05-14T04:54:31;9.00;99.90
19031;DHT22;9648;51.130;13.978;2023-05-14T04:56:58;9.10;99.90
19031;DHT22;9648;51.130;13.978;2023-05-14T04:59:27;9.20;99.90
19031;DHT22;9648;51.130;13.978;2023-05-14T05:01:54;9.20;99.90
19031;DHT22;9648;51.130;13.978;2023-05-14T05:04:22;9.30;99.90
19031;DHT22;9648;51.130;13.978;2023-05-14T05:06:51;9.40;99.90
19031;DHT22;9648;51.130;13.978;2023-05-14T05:09:17;9.50;99.90
19031;DHT22;9648;51.130;13.978;2023-05-14T05:11:44;9.50;99.90
19031;DHT22;9648;51.130;13.978;2023-05-14T05:14:11;9.60;99.90
19031;DHT22;9648;51.130;13.978;2023-05-14T05:16:38;9.60;99.90
19031;DHT22;9648;51.130;13.978;2023-05-14T05:19:07;9.70;99.90
19031;DHT22;9648;51.130;13.978;2023-05-14T05:21:36;9.90;99.90
19031;DHT22;9648;51.130;13.978;2023-05-14T05:24:05;10.00;99.90
19031;DHT22;9648;51.130;13.978;2023-05-14T05:26:32;10.10;99.90
19031;DHT22;9648;51.130;13.978;2023-05-14T05:29:01;10.30;99.90
19031;DHT22;9648;51.130;13.978;2023-05-14T05:31:28;10.40;99.90
19031;DHT22;9648;51.130;13.978;2023-05-14T05:33:55;10.40;99.90
19031;DHT22;9648;51.130;13.978;2023-05-14T05:36:21;10.50;99.90
19031;DHT22;9648;51.130;13.978;2023-05-14T05:38:49;10.50;99.90
19031;DHT22;9648;51.130;13.978;2023-05-14T05:41:16;10.50;99.90
19031;DHT22;9648;51.130;13.978;2023-05-14T05:43:43;10.50;99.90
19031;DHT22;9648;51.130;13.978;2023-05-14T05:46:10;10.60;99.90
19031;DHT22;9648;51.130;13.978;2023-05-14T05:48:37;10.70;99.90
19031;DHT22;9648;51.130;13.978;2023-05-14T05:51:04;10.90;99.90
19031;DHT22;9648;51.130;13.978;2023-05-14T05:53:34;11.00;99.90
19031;DHT22;9648;51.130;13.978;2023-05-14T05:56:02;11.10;99.90
19031;DHT22;9648;51.130;13.978;2023-05-14T05:58:29;11.30;99.90
19031;DHT22;9648;51.130;13.978;2023-05-14T06:00:56;11.50;99.90
19031;DHT22;9648;51.130;13.978;2023-05-14T06:03:23;11.60;99.90
19031;DHT22;9648;51.130;13.978;2023-05-14T06:05:49;11.70;99.90
19031;DHT22;9648;51.130;13.978;2023-05-14T06:08:17;11.80;99.90
19031;DHT22;9648;51.130;13.978;2023-05-14T06:10:46;11.90;99.90
19031;DHT22;9648;51.130;13.978;2023-05-14T06:13:15;12.00;99.90
19031;DHT22;9648;51.130;13.978;2023-05-14T06:15:41;12.10;99.90
19031;DHT22;9648;51.130;13.978;2023-05-14T06:18:08;12.30;99.90
19031;DHT22;9648;51.130;13.978;2023-05-14T06:20:35;12.30;99.90
19031;DHT22;9648;51.130;13.978;2023-05-14T06:23:02;12.50;99.90
19031;DHT22;9648;51.130;13.978;2023-05-14T06:25:28;12.50;99.90
19031;DHT22;9648;51.130;13.978;2023-05-14T06:27:55;12.60;99.90
19031;DHT22;9648;51.130;13.978;2023-05-14T06:30:23;12.70;99.90
19031;DHT22;9648;51.130;13.978;2023-05-14T06:32:53;12.80;99.90
19031;DHT22;9648;51.130;13.978;2023-05-14T06:35:20;12.90;99.90
19031;DHT22;9648;51.130;13.978;2023-05-14T06:37:47;13.10;99.90
19031;DHT22;9648;51.130;13.978;2023-05-14T06:40:14;13.20;99.90
19031;DHT22;9648;51.130;13.978;2023-05-14T06:42:41;13.40;99.90
19031;DHT22;9648;51.130;13.978;2023-05-14T06:45:08;13.50;99.90
19031;DHT22;9648;51.130;13.978;2023-05-14T06:47:36;13.60;99.90
19031;DHT22;9648;51.130;13.978;2023-05-14T06:50:03;13.70;99.90
19031;DHT22;9648;51.130;13.978;2023-05-14T06:52:30;13.80;99.90
19031;DHT22;9648;51.130;13.978;2023-05-14T06:54:57;13.90;99.90
19031;DHT22;9648;51.130;13.978;2023-05-14T06:57:23;14.00;99.90
19031;DHT22;9648;51.130;13.978;2023-05-14T06:59:50;14.10;99.90
19031;DHT22;9648;51.130;13.978;2023-05-14T07:02:17;14.20;99.90
19031;DHT22;9648;51.130;13.978;2023-05-14T07:04:48;14.30;99.90
19031;DHT22;9648;51.130;13.978;2023-05-14T07:07:15;14.30;99.90
19031;DHT22;9648;51.130;13.978;2023-05-14T07:09:45;14.40;99.90
19031;DHT22;9648;51.130;13.978;2023-05-14T07:12:11;14.60;99.90
19031;DHT22;9648;51.130;13.978;2023-05-14T07:14:38;14.70;99.90
19031;DHT22;9648;51.130;13.978;2023-05-14T07:17:05;14.70;99.90
19031;DHT22;9648;51.130;13.978;2023-05-14T07:19:35;14.80;99.90
19031;DHT22;9648;51.130;13.978;2023-05-14T07:22:03;15.00;99.90
19031;DHT22;9648;51.130;13.978;2023-05-14T07:24:33;15.10;99.90
19031;DHT22;9648;51.130;13.978;2023-05-14T07:27:00;15.10;99.90
19031;DHT22;9648;51.130;13.978;2023-05-14T07:29:26;15.20;99.90
19031;DHT22;9648;51.130;13.978;2023-05-14T07:31:57;15.20;99.90
19031;DHT22;9648;51.130;13.978;2023-05-14T07:34:23;15.30;99.90
19031;DHT22;9648;51.130;13.978;2023-05-14T07:36:50;15.50;99.90
19031;DHT22;9648;51.130;13.978;2023-05-14T07:39:21;15.60;99.90
19031;DHT22;9648;51.130;13.978;2023-05-14T07:41:51;15.70;99.90
19031;DHT22;9648;51.130;13.978;2023-05-14T07:44:19;15.70;99.90
19031;DHT22;9648;51.130;13.978;2023-05-14T07:46:49;15.60;99.90
19031;DHT22;9648;51.130;13.978;2023-05-14T07:49:15;15.50;99.90
19031;DHT22;9648;51.130;13.978;2023-05-14T07:51:42;15.50;99.90
19031;DHT22;9648;51.130;13.978;2023-05-14T07:54:09;15.60;99.90
19031;DHT22;9648;51.130;13.978;2023-05-14T07:56:37;15.70;99.90
19031;DHT22;9648;51.130;13.978;2023-05-14T07:59:04;15.80;99.90
19031;DHT22;9648;51.130;13.978;2023-05-14T08:01:34;15.90;99.90
19031;DHT22;9648;51.130;13.978;2023-05-14T08:04:01;16.00;99.90
19031;DHT22;9648;51.130;13.978;2023-05-14T08:06:28;16.10;99.90
19031;DHT22;9648;51.130;13.978;2023-05-14T08:08:55;15.90;99.90
19031;DHT22;9648;51.130;13.978;2023-05-14T08:11:21;15.80;99.90
19031;DHT22;9648;51.130;13.978;2023-05-14T08:13:53;15.80;99.90
19031;DHT22;9648;51.130;13.978;2023-05-14T08:16:19;15.90;99.90
19031;DHT22;9648;51.130;13.978;2023-05-14T08:18:49;16.10;99.90
19031;DHT22;9648;51.130;13.978;2023-05-14T08:21:19;16.40;99.90
19031;DHT22;9648;51.130;13.978;2023-05-14T08:23:48;16.60;99.90
19031;DHT22;9648;51.130;13.978;2023-05-14T08:26:15;16.90;99.90
19031;DHT22;9648;51.130;13.978;2023-05-14T08:28:42;17.20;99.90
19031;DHT22;9648;51.130;13.978;2023-05-14T08:31:10;17.50;99.90
19031;DHT22;9648;51.130;13.978;2023-05-14T08:33:39;17.60;99.90
19031;DHT22;9648;51.130;13.978;2023-05-14T08:36:06;17.70;99.90
19031;DHT22;9648;51.130;13.978;2023-05-14T08:38:33;17.70;99.90
19031;DHT22;9648;51.130;13.978;2023-05-14T08:41:05;17.90;99.90
19031;DHT22;9648;51.130;13.978;2023-05-14T08:43:37;18.10;99.90
19031;DHT22;9648;51.130;13.978;2023-05-14T08:46:12;18.30;99.90
19031;DHT22;9648;51.130;13.978;2023-05-14T08:48:41;18.50;99.90
19031;DHT22;9648;51.130;13.978;2023-05-14T08:51:08;18.50;99.90
19031;DHT22;9648;51.130;13.978;2023-05-14T08:53:35;18.40;99.90
19031;DHT22;9648;51.130;13.978;2023-05-14T08:56:06;18.30;99.90
19031;DHT22;9648;51.130;13.978;2023-05-14T08:58:34;18.30;99.90
19031;DHT22;9648;51.130;13.978;2023-05-14T09:01:03;18.20;99.90
19031;DHT22;9648;51.130;13.978;2023-05-14T09:03:32;18.10;99.90
19031;DHT22;9648;51.130;13.978;2023-05-14T09:06:01;18.00;99.90
19031;DHT22;9648;51.130;13.978;2023-05-14T09:08:28;17.90;99.90
19031;DHT22;9648;51.130;13.978;2023-05-14T09:10:55;17.70;99.90
19031;DHT22;9648;51.130;13.978;2023-05-14T09:13:21;17.50;99.90
19031;DHT22;9648;51.130;13.978;2023-05-14T09:15:49;17.40;99.90
19031;DHT22;9648;51.130;13.978;2023-05-14T09:18:16;17.30;99.90
19031;DHT22;9648;51.130;13.978;2023-05-14T09:20:46;17.20;99.90
19031;DHT22;9648;51.130;13.978;2023-05-14T09:23:13;17.20;99.90
19031;DHT22;9648;51.130;13.978;2023-05-14T09:25:42;17.10;99.90
19031;DHT22;9648;51.130;13.978;2023-05-14T09:28:09;17.00;99.90
19031;DHT22;9648;51.130;13.978;2023-05-14T09:30:36;17.00;99.90
19031;DHT22;9648;51.130;13.978;2023-05-14T09:33:03;16.90;99.90
19031;DHT22;9648;51.130;13.978;2023-05-14T09:35:33;17.00;99.90
19031;DHT22;9648;51.130;13.978;2023-05-14T09:38:01;16.90;99.90
19031;DHT22;9648;51.130;13.978;2023-05-14T09:40:31;16.90;99.90
19031;DHT22;9648;51.130;13.978;2023-05-14T09:42:57;17.00;99.90
19031;DHT22;9648;51.130;13.978;2023-05-14T09:45:32;17.10;99.90
19031;DHT22;9648;51.130;13.978;2023-05-14T09:48:00;17.30;99.90
19031;DHT22;9648;51.130;13.978;2023-05-14T09:50:27;17.50;99.90
19031;DHT22;9648;51.130;13.978;2023-05-14T09:52:54;17.70;99.90
19031;DHT22;9648;51.130;13.978;2023-05-14T09:55:22;18.00;99.90
19031;DHT22;9648;51.130;13.978;2023-05-14T09:57:53;18.20;99.90
19031;DHT22;9648;51.130;13.978;2023-05-14T10:00:22;18.40;99.90
19031;DHT22;9648;51.130;13.978;2023-05-14T10:02:50;18.60;99.90
19031;DHT22;9648;51.130;13.978;2023-05-14T10:05:18;18.80;99.90
19031;DHT22;9648;51.130;13.978;2023-05-14T10:07:47;18.80;99.90
19031;DHT22;9648;51.130;13.978;2023-05-14T10:10:17;18.90;99.90
19031;DHT22;9648;51.130;13.978;2023-05-14T10:12:50;19.00;99.90
19031;DHT22;9648;51.130;13.978;2023-05-14T10:15:20;19.00;98.70
19031;DHT22;9648;51.130;13.978;2023-05-14T10:17:50;19.10;99.90
19031;DHT22;9648;51.130;13.978;2023-05-14T10:20:19;19.20;98.60
19031;DHT22;9648;51.130;13.978;2023-05-14T10:22:49;19.30;99.90
19031;DHT22;9648;51.130;13.978;2023-05-14T10:25:20;19.50;99.50
19031;DHT22;9648;51.130;13.978;2023-05-14T10:27:48;19.70;99.90
19031;DHT22;9648;51.130;13.978;2023-05-14T10:30:15;19.80;99.60
19031;DHT22;9648;51.130;13.978;2023-05-14T10:32:42;19.90;97.80
19031;DHT22;9648;51.130;13.978;2023-05-14T10:35:16;19.80;98.80
19031;DHT22;9648;51.130;13.978;2023-05-14T10:37:44;19.80;98.80
19031;DHT22;9648;51.130;13.978;2023-05-14T10:40:12;19.90;97.20
19031;DHT22;9648;51.130;13.978;2023-05-14T10:42:39;20.00;96.60
19031;DHT22;9648;51.130;13.978;2023-05-14T10:45:10;20.20;96.50
19031;DHT22;9648;51.130;13.978;2023-05-14T10:47:38;20.30;97.20
19031;DHT22;9648;51.130;13.978;2023-05-14T10:50:07;20.60;97.80
19031;DHT22;9648;51.130;13.978;2023-05-14T10:52:34;21.00;97.90
19031;DHT22;9648;51.130;13.978;2023-05-14T10:55:03;21.20;95.90
19031;DHT22;9648;51.130;13.978;2023-05-14T10:57:34;21.30;90.70
19031;DHT22;9648;51.130;13.978;2023-05-14T11:00:01;21.40;92.80
19031;DHT22;9648;51.130;13.978;2023-05-14T11:02:33;21.50;94.00
19031;DHT22;9648;51.130;13.978;2023-05-14T11:05:05;21.40;84.60
19031;DHT22;9648;51.130;13.978;2023-05-14T11:07:37;21.30;78.30
19031;DHT22;9648;51.130;13.978;2023-05-14T11:10:08;21.00;74.90
19031;DHT22;9648;51.130;13.978;2023-05-14T11:12:37;21.00;87.70
19031;DHT22;9648;51.130;13.978;2023-05-14T11:15:06;21.10;84.30
19031;DHT22;9648;51.130;13.978;2023-05-14T11:17:37;21.20;85.80
19031;DHT22;9648;51.130;13.978;2023-05-14T11:20:05;21.50;91.40
19031;DHT22;9648;51.130;13.978;2023-05-14T11:22:32;21.70;85.60
19031;DHT22;9648;51.130;13.978;2023-05-14T11:24:59;21.90;79.80
19031;DHT22;9648;51.130;13.978;2023-05-14T11:27:26;22.00;79.50
19031;DHT22;9648;51.130;13.978;2023-05-14T11:29:53;22.10;75.10
19031;DHT22;9648;51.130;13.978;2023-05-14T11:32:20;22.10;72.10
19031;DHT22;9648;51.130;13.978;2023-05-14T11:34:48;22.10;72.80
19031;DHT22;9648;51.130;13.978;2023-05-14T11:37:15;22.00;70.90
19031;DHT22;9648;51.130;13.978;2023-05-14T11:39:46;22.00;74.20
19031;DHT22;9648;51.130;13.978;2023-05-14T11:42:14;21.90;74.10
19031;DHT22;9648;51.130;13.978;2023-05-14T11:44:44;21.80;68.30
19031;DHT22;9648;51.130;13.978;2023-05-14T11:47:11;21.60;66.20
19031;DHT22;9648;51.130;13.978;2023-05-14T11:49:38;21.60;68.40
19031;DHT22;9648;51.130;13.978;2023-05-14T11:52:07;21.80;70.60
19031;DHT22;9648;51.130;13.978;2023-05-14T11:54:36;21.60;69.60
19031;DHT22;9648;51.130;13.978;2023-05-14T11:57:08;21.40;70.40
19031;DHT22;9648;51.130;13.978;2023-05-14T11:59:35;20.70;68.20
19031;DHT22;9648;51.130;13.978;2023-05-14T12:02:03;20.10;72.20
19031;DHT22;9648;51.130;13.978;2023-05-14T12:04:33;19.80;75.40
19031;DHT22;9648;51.130;13.978;2023-05-14T12:07:08;19.60;77.30
19031;DHT22;9648;51.130;13.978;2023-05-14T12:09:36;19.50;78.00
19031;DHT22;9648;51.130;13.978;2023-05-14T12:12:07;19.20;81.60
19031;DHT22;9648;51.130;13.978;2023-05-14T12:14:36;19.30;83.30
19031;DHT22;9648;51.130;13.978;2023-05-14T12:17:10;19.30;82.00
19031;DHT22;9648;51.130;13.978;2023-05-14T12:19:38;19.60;83.10
19031;DHT22;9648;51.130;13.978;2023-05-14T12:22:08;19.50;80.50
19031;DHT22;9648;51.130;13.978;2023-05-14T12:24:35;19.40;81.70
19031;DHT22;9648;51.130;13.978;2023-05-14T12:27:07;19.40;80.40
19031;DHT22;9648;51.130;13.978;2023-05-14T12:29:35;19.40;83.90
19031;DHT22;9648;51.130;13.978;2023-05-14T12:32:06;19.60;88.70
19031;DHT22;9648;51.130;13.978;2023-05-14T12:34:34;19.80;85.20
19031;DHT22;9648;51.130;13.978;2023-05-14T12:37:01;20.10;82.60
19031;DHT22;9648;51.130;13.978;2023-05-14T12:39:30;20.10;79.60
19031;DHT22;9648;51.130;13.978;2023-05-14T12:42:00;20.10;78.20
19031;DHT22;9648;51.130;13.978;2023-05-14T12:44:27;20.20;81.80
19031;DHT22;9648;51.130;13.978;2023-05-14T12:46:54;20.50;83.30
19031;DHT22;9648;51.130;13.978;2023-05-14T12:49:22;20.80;80.60
19031;DHT22;9648;51.130;13.978;2023-05-14T12:51:48;20.90;75.90
19031;DHT22;9648;51.130;13.978;2023-05-14T12:54:15;20.60;72.20
19031;DHT22;9648;51.130;13.978;2023-05-14T12:56:43;20.60;74.90
19031;DHT22;9648;51.130;13.978;2023-05-14T12:59:10;20.70;76.10
19031;DHT22;9648;51.130;13.978;2023-05-14T13:01:37;20.80;71.70
19031;DHT22;9648;51.130;13.978;2023-05-14T13:04:04;20.80;73.20
19031;DHT22;9648;51.130;13.978;2023-05-14T13:06:31;20.80;71.80
19031;DHT22;9648;51.130;13.978;2023-05-14T13:08:58;21.00;69.10
19031;DHT22;9648;51.130;13.978;2023-05-14T13:11:27;21.00;68.70
19031;DHT22;9648;51.130;13.978;2023-05-14T13:13:56;20.80;70.40
19031;DHT22;9648;51.130;13.978;2023-05-14T13:16:23;20.50;69.10
19031;DHT22;9648;51.130;13.978;2023-05-14T13:18:50;20.50;71.40
19031;DHT22;9648;51.130;13.978;2023-05-14T13:21:17;20.40;70.00
19031;DHT22;9648;51.130;13.978;2023-05-14T13:23:46;20.40;69.90
19031;DHT22;9648;51.130;13.978;2023-05-14T13:26:13;20.10;70.80
19031;DHT22;9648;51.130;13.978;2023-05-14T13:28:43;20.10;74.40
19031;DHT22;9648;51.130;13.978;2023-05-14T13:31:12;20.20;75.10
19031;DHT22;9648;51.130;13.978;2023-05-14T13:33:41;20.30;75.90
19031;DHT22;9648;51.130;13.978;2023-05-14T13:36:09;20.40;77.50
19031;DHT22;9648;51.130;13.978;2023-05-14T13:38:36;20.30;76.40
19031;DHT22;9648;51.130;13.978;2023-05-14T13:41:03;20.10;73.70
19031;DHT22;9648;51.130;13.978;2023-05-14T13:43:31;20.00;78.50
19031;DHT22;9648;51.130;13.978;2023-05-14T13:45:58;20.00;81.00
19031;DHT22;9648;51.130;13.978;2023-05-14T13:48:27;20.00;77.10
19031;DHT22;9648;51.130;13.978;2023-05-14T13:50:58;19.70;78.70
19031;DHT22;9648;51.130;13.978;2023-05-14T13:53:25;19.50;84.50
19031;DHT22;9648;51.130;13.978;2023-05-14T13:55:52;19.50;80.60
19031;DHT22;9648;51.130;13.978;2023-05-14T13:58:21;19.40;82.10
19031;DHT22;9648;51.130;13.978;2023-05-14T14:00:52;19.40;80.20
19031;DHT22;9648;51.130;13.978;2023-05-14T14:03:19;19.30;81.30
19031;DHT22;9648;51.130;13.978;2023-05-14T14:05:47;19.30;81.60
19031;DHT22;9648;51.130;13.978;2023-05-14T14:08:17;19.20;82.00
19031;DHT22;9648;51.130;13.978;2023-05-14T14:10:45;19.10;83.10
19031;DHT22;9648;51.130;13.978;2023-05-14T14:13:12;19.00;83.20
19031;DHT22;9648;51.130;13.978;2023-05-14T14:15:38;19.00;83.60
19031;DHT22;9648;51.130;13.978;2023-05-14T14:18:05;19.00;84.10
19031;DHT22;9648;51.130;13.978;2023-05-14T14:20:32;18.90;83.10
19031;DHT22;9648;51.130;13.978;2023-05-14T14:23:00;18.90;85.10
19031;DHT22;9648;51.130;13.978;2023-05-14T14:25:27;18.80;85.40
19031;DHT22;9648;51.130;13.978;2023-05-14T14:27:54;18.70;86.50
19031;DHT22;9648;51.130;13.978;2023-05-14T14:30:21;18.70;86.70
19031;DHT22;9648;51.130;13.978;2023-05-14T14:32:50;18.70;89.70
19031;DHT22;9648;51.130;13.978;2023-05-14T14:35:21;18.80;91.30
19031;DHT22;9648;51.130;13.978;2023-05-14T14:37:48;18.90;93.60
19031;DHT22;9648;51.130;13.978;2023-05-14T14:40:22;19.00;94.60
19031;DHT22;9648;51.130;13.978;2023-05-14T14:42:52;19.10;96.00
19031;DHT22;9648;51.130;13.978;2023-05-14T14:45:18;19.10;95.10
19031;DHT22;9648;51.130;13.978;2023-05-14T14:47:47;19.00;95.20
19031;DHT22;9648;51.130;13.978;2023-05-14T14:50:15;19.00;96.30
19031;DHT22;9648;51.130;13.978;2023-05-14T14:52:42;19.00;97.60
19031;DHT22;9648;51.130;13.978;2023-05-14T14:55:09;18.90;98.20
19031;DHT22;9648;51.130;13.978;2023-05-14T14:57:37;18.90;96.90
19031;DHT22;9648;51.130;13.978;2023-05-14T15:00:06;18.90;95.50
19031;DHT22;9648;51.130;13.978;2023-05-14T15:02:33;18.80;94.50
19031;DHT22;9648;51.130;13.978;2023-05-14T15:05:06;18.70;94.60
19031;DHT22;9648;51.130;13.978;2023-05-14T15:07:32;18.70;95.90
19031;DHT22;9648;51.130;13.978;2023-05-14T15:09:59;18.60;95.40
19031;DHT22;9648;51.130;13.978;2023-05-14T15:12:26;18.60;96.90
19031;DHT22;9648;51.130;13.978;2023-05-14T15:14:54;18.60;97.50
19031;DHT22;9648;51.130;13.978;2023-05-14T15:17:21;18.50;97.60
19031;DHT22;9648;51.130;13.978;2023-05-14T15:19:48;18.50;96.70
19031;DHT22;9648;51.130;13.978;2023-05-14T15:22:14;18.50;96.60
19031;DHT22;9648;51.130;13.978;2023-05-14T15:24:44;18.40;98.20
19031;DHT22;9648;51.130;13.978;2023-05-14T15:27:11;18.40;98.40
19031;DHT22;9648;51.130;13.978;2023-05-14T15:29:38;18.40;97.60
19031;DHT22;9648;51.130;13.978;2023-05-14T15:32:09;18.40;98.00
19031;DHT22;9648;51.130;13.978;2023-05-14T15:34:39;18.30;97.90
19031;DHT22;9648;51.130;13.978;2023-05-14T15:37:06;18.30;97.90
19031;DHT22;9648;51.130;13.978;2023-05-14T15:39:36;18.20;96.90